Time;durP1;ratioP1;P1;durP2;ratioP2;P2;SDS_P1;SDS_P2;PMS_P1;PMS_P2;Temp;Humidity;BMP_temperature;BMP_pressure;BME280_temperature;BME280_humidity;BME280_pressure;Samples;Min_cycle;Max_cycle;Signal;HPM_P1;HPM_P2
2022/09/01 00:00:50;;;;;;;5.60;2.90;;;;;;;;;;110469;1255;34797;-33
2022/09/01 00:03:22;;;;;;;5.70;2.90;;;;;;;;;;110496;1255;35683;-33
2022/09/01 00:05:56;;;;;;;5.50;2.80;;;;;;;;;;110487;1255;33223;-33
2022/09/01 00:08:27;;;;;;;5.70;2.70;;;;;;;;;;110486;1247;35177;-33
2022/09/01 00:10:59;;;;;;;5.90;2.70;;;;;;;;;;110476;1256;35539;-33
2022/09/01 00:13:32;;;;;;;4.50;2.20;;;;;;;;;;110498;1256;34973;-33
2022/09/01 00:16:03;;;;;;;4.90;2.30;;;;;;;;;;110531;1247;35014;-33
2022/09/01 00:18:34;;;;;;;5.40;2.20;;;;;;;;;;110489;1247;34211;-32
2022/09/01 00:21:07;;;;;;;5.30;2.60;;;;;;;;;;110519;1255;33237;-33
2022/09/01 00:23:39;;;;;;;4.60;2.30;;;;;;;;;;110483;1255;35094;-32
2022/09/01 00:26:13;;;;;;;4.50;2.20;;;;;;;;;;110500;1247;34787;-33
2022/09/01 00:28:47;;;;;;;5.30;2.70;;;;;;;;;;110478;1247;34147;-33
2022/09/01 00:31:20;;;;;;;5.30;2.40;;;;;;;;;;110489;1250;33558;-33
2022/09/01 00:33:51;;;;;;;4.30;2.00;;;;;;;;;;110505;1255;34198;-33
2022/09/01 00:36:24;;;;;;;4.70;2.00;;;;;;;;;;110523;1254;34887;-33
2022/09/01 00:38:55;;;;;;;5.10;2.10;;;;;;;;;;110541;1255;34194;-33
2022/09/01 00:41:28;;;;;;;4.10;1.90;;;;;;;;;;110480;1255;33182;-33
2022/09/01 00:43:59;;;;;;;;;;;;;;;;;;110688;1255;34509;-33
2022/09/01 00:46:34;;;;;;;5.50;2.00;;;;;;;;;;110804;1247;33460;-33
2022/09/01 00:49:08;;;;;;;4.80;2.20;;;;;;;;;;110818;1255;34205;-33
2022/09/01 00:51:42;;;;;;;4.70;1.70;;;;;;;;;;110618;1255;33318;-33
2022/09/01 00:54:18;;;;;;;4.60;2.00;;;;;;;;;;110495;1247;33784;-33
2022/09/01 00:56:49;;;;;;;4.10;1.60;;;;;;;;;;110495;1249;34062;-33
2022/09/01 00:59:21;;;;;;;3.90;1.70;;;;;;;;;;110437;1249;33896;-33
2022/09/01 01:01:52;;;;;;;4.00;1.60;;;;;;;;;;110449;1247;33676;-33
2022/09/01 01:04:25;;;;;;;3.50;1.30;;;;;;;;;;110432;1256;34995;-33
2022/09/01 01:07:00;;;;;;;3.60;1.40;;;;;;;;;;110447;1247;34619;-33
2022/09/01 01:09:34;;;;;;;3.70;1.70;;;;;;;;;;110459;1248;34390;-33
2022/09/01 01:12:10;;;;;;;3.60;1.50;;;;;;;;;;110479;1247;33326;-33
2022/09/01 01:14:42;;;;;;;3.60;1.40;;;;;;;;;;110470;1255;33982;-33
2022/09/01 01:17:12;;;;;;;3.70;1.50;;;;;;;;;;110450;1255;34259;-33
2022/09/01 01:25:30;;;;;;;3.10;1.40;;;;;;;;;;110454;1247;34311;-33
2022/09/01 01:28:14;;;;;;;3.30;1.40;;;;;;;;;;110462;1247;33609;-33
2022/09/01 01:30:49;;;;;;;3.00;1.20;;;;;;;;;;110482;1256;34883;-32
2022/09/01 01:33:22;;;;;;;4.00;1.30;;;;;;;;;;110444;1250;34876;-33
2022/09/01 01:35:56;;;;;;;3.60;1.20;;;;;;;;;;110351;1251;33194;-33
2022/09/01 01:38:29;;;;;;;2.50;1.10;;;;;;;;;;110434;1255;35048;-33
2022/09/01 01:41:00;;;;;;;3.40;1.10;;;;;;;;;;110459;1255;35047;-33
2022/09/01 01:43:32;;;;;;;2.40;1.00;;;;;;;;;;110458;1247;35315;-32
2022/09/01 01:46:05;;;;;;;3.20;1.00;;;;;;;;;;110481;1248;35255;-33
2022/09/01 01:48:38;;;;;;;2.90;1.10;;;;;;;;;;110464;1256;34472;-33
2022/09/01 01:51:10;;;;;;;2.90;1.20;;;;;;;;;;110457;1256;35171;-33
2022/09/01 01:53:42;;;;;;;2.60;1.00;;;;;;;;;;110482;1255;34200;-33
2022/09/01 01:56:13;;;;;;;3.40;1.10;;;;;;;;;;110489;1255;35375;-33
2022/09/01 01:58:43;;;;;;;2.70;1.00;;;;;;;;;;110462;1255;34495;-33
2022/09/01 02:01:15;;;;;;;2.80;1.00;;;;;;;;;;110442;1248;33605;-33
2022/09/01 02:03:46;;;;;;;3.40;1.30;;;;;;;;;;110459;1247;35137;-33
2022/09/01 02:06:23;;;;;;;2.70;1.00;;;;;;;;;;110460;1247;34023;-33
2022/09/01 02:08:56;;;;;;;2.60;1.00;;;;;;;;;;110429;1255;35407;-33
2022/09/01 02:11:27;;;;;;;2.00;0.80;;;;;;;;;;110479;1256;33730;-33
2022/09/01 02:13:59;;;;;;;2.50;0.90;;;;;;;;;;110469;1255;34294;-33
2022/09/01 02:16:32;;;;;;;3.60;1.50;;;;;;;;;;110464;1247;33863;-33
2022/09/01 02:19:05;;;;;;;2.40;0.80;;;;;;;;;;110461;1254;34564;-33
2022/09/01 02:21:36;;;;;;;2.60;1.10;;;;;;;;;;110451;1256;34883;-33
2022/09/01 02:24:08;;;;;;;2.00;1.00;;;;;;;;;;110458;1247;35429;-33
2022/09/01 02:26:43;;;;;;;2.90;0.90;;;;;;;;;;110464;1247;35157;-33
2022/09/01 02:29:17;;;;;;;2.90;1.00;;;;;;;;;;110462;1250;35391;-33
2022/09/01 02:31:50;;;;;;;2.10;1.00;;;;;;;;;;110431;1248;33919;-33
2022/09/01 02:34:25;;;;;;;2.60;0.80;;;;;;;;;;110439;1255;35809;-33
2022/09/01 02:36:57;;;;;;;2.50;0.80;;;;;;;;;;110486;1254;35489;-33
2022/09/01 02:39:32;;;;;;;2.20;1.00;;;;;;;;;;110461;1248;34151;-33
2022/09/01 02:42:04;;;;;;;2.70;1.10;;;;;;;;;;110492;1251;34985;-33
2022/09/01 02:44:36;;;;;;;2.70;0.80;;;;;;;;;;110462;1247;33838;-33
2022/09/01 02:47:09;;;;;;;2.80;1.00;;;;;;;;;;110458;1255;35395;-33
2022/09/01 02:49:41;;;;;;;2.60;0.80;;;;;;;;;;110466;1247;33315;-33
2022/09/01 02:52:14;;;;;;;2.10;0.90;;;;;;;;;;110475;1247;34864;-33
2022/09/01 02:54:45;;;;;;;3.00;1.00;;;;;;;;;;110478;1247;35203;-33
2022/09/01 02:57:17;;;;;;;2.00;0.90;;;;;;;;;;110450;1256;34375;-33
2022/09/01 02:59:48;;;;;;;2.60;0.80;;;;;;;;;;110478;1256;33729;-33
2022/09/01 03:02:21;;;;;;;2.60;0.80;;;;;;;;;;110433;1250;34208;-33
2022/09/01 03:04:54;;;;;;;2.00;0.90;;;;;;;;;;110458;1256;35152;-33
2022/09/01 03:07:26;;;;;;;2.20;0.70;;;;;;;;;;110443;1250;33909;-33
2022/09/01 03:09:57;;;;;;;4.50;1.00;;;;;;;;;;110457;1255;35193;-33
2022/09/01 03:12:33;;;;;;;2.50;1.00;;;;;;;;;;110427;1255;34478;-33
2022/09/01 03:15:05;;;;;;;2.60;1.00;;;;;;;;;;110435;1247;33908;-33
2022/09/01 03:17:36;;;;;;;2.20;0.90;;;;;;;;;;110470;1255;33878;-33
2022/09/01 03:20:10;;;;;;;2.80;1.00;;;;;;;;;;110430;1247;34155;-33
2022/09/01 03:22:40;;;;;;;1.80;0.80;;;;;;;;;;110445;1247;34929;-32
2022/09/01 03:25:14;;;;;;;2.20;0.90;;;;;;;;;;110456;1256;35485;-33
2022/09/01 03:27:43;;;;;;;;;;;;;;;;;;110454;1248;35033;-33
2022/09/01 03:30:18;;;;;;;1.80;0.80;;;;;;;;;;110466;1257;34747;-33
2022/09/01 03:32:49;;;;;;;2.40;0.80;;;;;;;;;;110464;1247;35024;-33
2022/09/01 03:35:24;;;;;;;2.20;0.90;;;;;;;;;;110482;1255;34521;-33
2022/09/01 03:37:57;;;;;;;2.50;0.80;;;;;;;;;;110461;1255;35690;-33
2022/09/01 03:40:31;;;;;;;3.30;1.20;;;;;;;;;;110460;1247;33685;-33
2022/09/01 03:43:03;;;;;;;2.70;0.90;;;;;;;;;;110459;1254;34257;-32
2022/09/01 03:45:37;;;;;;;2.90;1.00;;;;;;;;;;110443;1256;35264;-33
2022/09/01 03:48:08;;;;;;;;;;;;;;;;;;110460;1257;34990;-33
2022/09/01 03:50:46;;;;;;;2.10;0.70;;;;;;;;;;110458;1255;34438;-33
2022/09/01 03:53:21;;;;;;;2.20;0.80;;;;;;;;;;110418;1247;34154;-33
2022/09/01 03:55:53;;;;;;;3.90;1.10;;;;;;;;;;110433;1255;34175;-33
2022/09/01 03:58:27;;;;;;;2.50;1.20;;;;;;;;;;110424;1255;35845;-33
2022/09/01 04:01:00;;;;;;;2.40;0.80;;;;;;;;;;110459;1255;34163;-33
2022/09/01 04:03:33;;;;;;;2.40;1.00;;;;;;;;;;110414;1247;34753;-33
2022/09/01 04:06:05;;;;;;;2.70;0.90;;;;;;;;;;110452;1247;33919;-33
2022/09/01 04:08:36;;;;;;;1.80;0.70;;;;;;;;;;110463;1250;35722;-33
2022/09/01 04:11:17;;;;;;;2.30;0.80;;;;;;;;;;110452;1250;33404;-31
2022/09/01 04:13:49;;;;;;;2.70;1.20;;;;;;;;;;110332;1257;35383;-32
2022/09/01 04:19:18;;;;;;;3.80;1.10;;;;;;;;;;110494;1254;33660;-33
2022/09/01 04:21:50;;;;;;;2.60;0.80;;;;;;;;;;110479;1247;35178;-33
2022/09/01 04:24:24;;;;;;;2.50;0.90;;;;;;;;;;110473;1247;33217;-33
2022/09/01 04:26:57;;;;;;;2.40;1.00;;;;;;;;;;110459;1255;35396;-33
2022/09/01 04:29:29;;;;;;;2.30;0.90;;;;;;;;;;110507;1256;35511;-33
2022/09/01 04:32:04;;;;;;;3.00;1.00;;;;;;;;;;110508;1256;35509;-33
2022/09/01 04:34:37;;;;;;;2.70;0.90;;;;;;;;;;110495;1247;34349;-33
2022/09/01 04:37:16;;;;;;;3.10;1.20;;;;;;;;;;110469;1257;33772;-32
2022/09/01 04:39:52;;;;;;;2.30;0.90;;;;;;;;;;110480;1256;34951;-33
2022/09/01 04:42:24;;;;;;;2.20;1.00;;;;;;;;;;110444;1256;34282;-33
2022/09/01 04:44:59;;;;;;;2.70;1.00;;;;;;;;;;110450;1248;33403;-31
2022/09/01 04:47:30;;;;;;;2.30;0.70;;;;;;;;;;110461;1255;34816;-32
2022/09/01 04:50:03;;;;;;;2.60;0.90;;;;;;;;;;110472;1248;33819;-32
2022/09/01 04:52:34;;;;;;;2.10;0.80;;;;;;;;;;110481;1248;33763;-32
2022/09/01 04:55:07;;;;;;;2.80;0.90;;;;;;;;;;110440;1255;35805;-32
2022/09/01 04:57:38;;;;;;;3.10;0.80;;;;;;;;;;110442;1247;33324;-32
2022/09/01 05:00:21;;;;;;;2.50;0.80;;;;;;;;;;110445;1250;35062;-32
2022/09/01 05:02:54;;;;;;;2.10;0.80;;;;;;;;;;110462;1248;34220;-32
2022/09/01 05:05:26;;;;;;;2.10;0.80;;;;;;;;;;110447;1255;34639;-32
2022/09/01 05:07:56;;;;;;;2.40;0.80;;;;;;;;;;110424;1256;33201;-32
2022/09/01 05:10:28;;;;;;;3.50;1.10;;;;;;;;;;109948;1247;630231;-32
2022/09/01 05:13:00;;;;;;;2.90;0.90;;;;;;;;;;110445;1257;35203;-32
2022/09/01 05:15:31;;;;;;;3.20;1.00;;;;;;;;;;110470;1256;33374;-33
2022/09/01 05:18:08;;;;;;;2.30;0.90;;;;;;;;;;110431;1247;33451;-33
2022/09/01 05:20:41;;;;;;;2.20;0.80;;;;;;;;;;110448;1257;33590;-33
2022/09/01 05:23:18;;;;;;;2.30;0.80;;;;;;;;;;110499;1247;34582;-33
2022/09/01 05:25:53;;;;;;;3.10;1.00;;;;;;;;;;110446;1250;35130;-33
2022/09/01 05:28:25;;;;;;;2.30;0.90;;;;;;;;;;110504;1247;34054;-33
2022/09/01 05:31:00;;;;;;;2.20;0.90;;;;;;;;;;110474;1247;34104;-33
2022/09/01 05:33:33;;;;;;;3.30;0.90;;;;;;;;;;110491;1248;33502;-33
2022/09/01 05:36:08;;;;;;;2.10;0.80;;;;;;;;;;110468;1255;34428;-33
2022/09/01 05:38:41;;;;;;;2.00;0.80;;;;;;;;;;110493;1247;34262;-33
2022/09/01 05:41:19;;;;;;;2.40;0.90;;;;;;;;;;110465;1248;34903;-33
2022/09/01 05:43:54;;;;;;;2.50;0.90;;;;;;;;;;110507;1256;34038;-33
2022/09/01 05:46:28;;;;;;;2.60;0.90;;;;;;;;;;110452;1257;35248;-33
2022/09/01 05:48:59;;;;;;;2.30;0.90;;;;;;;;;;110489;1247;35088;-33
2022/09/01 05:51:34;;;;;;;2.60;0.80;;;;;;;;;;110448;1254;33777;-33
2022/09/01 05:54:08;;;;;;;3.40;1.00;;;;;;;;;;110481;1250;33258;-33
2022/09/01 05:56:41;;;;;;;2.50;0.90;;;;;;;;;;110470;1257;34015;-34
2022/09/01 05:59:12;;;;;;;2.20;0.70;;;;;;;;;;110466;1247;35099;-33
2022/09/01 06:01:46;;;;;;;3.00;1.00;;;;;;;;;;110465;1255;33261;-33
2022/09/01 06:04:18;;;;;;;2.70;0.90;;;;;;;;;;110444;1247;35090;-33
2022/09/01 06:06:52;;;;;;;2.50;0.90;;;;;;;;;;110456;1247;33631;-33
2022/09/01 06:09:26;;;;;;;2.60;0.90;;;;;;;;;;110445;1255;33993;-33
2022/09/01 06:11:58;;;;;;;2.80;0.90;;;;;;;;;;110441;1255;34150;-33
2022/09/01 06:14:30;;;;;;;2.70;0.90;;;;;;;;;;110438;1247;33720;-33
2022/09/01 06:17:02;;;;;;;1.90;0.90;;;;;;;;;;110479;1253;33560;-33
2022/09/01 06:19:34;;;;;;;3.10;1.20;;;;;;;;;;110491;1247;35172;-33
2022/09/01 06:22:06;;;;;;;2.50;0.90;;;;;;;;;;110468;1247;33409;-32
2022/09/01 06:24:40;;;;;;;3.10;1.00;;;;;;;;;;110453;1248;33467;-33
2022/09/01 06:27:11;;;;;;;4.10;1.10;;;;;;;;;;110463;1247;34304;-33
2022/09/01 06:29:42;;;;;;;3.20;1.10;;;;;;;;;;110486;1255;34670;-33
2022/09/01 06:32:13;;;;;;;3.00;1.10;;;;;;;;;;110470;1248;33389;-33
2022/09/01 06:34:49;;;;;;;4.00;1.00;;;;;;;;;;110388;1247;33865;-33
2022/09/01 06:37:22;;;;;;;3.00;1.00;;;;;;;;;;110438;1256;35426;-33
2022/09/01 06:39:53;;;;;;;3.60;0.90;;;;;;;;;;110468;1253;35136;-33
2022/09/01 06:42:24;;;;;;;5.00;0.90;;;;;;;;;;110453;1254;35037;-33
2022/09/01 06:44:56;;;;;;;2.90;1.00;;;;;;;;;;110433;1252;33602;-33
2022/09/01 06:47:27;;;;;;;2.30;0.80;;;;;;;;;;110428;1255;33188;-33
2022/09/01 06:49:59;;;;;;;3.20;1.00;;;;;;;;;;110441;1257;34245;-33
2022/09/01 06:52:31;;;;;;;4.10;1.20;;;;;;;;;;110464;1255;34798;-33
2022/09/01 06:55:07;;;;;;;4.80;0.90;;;;;;;;;;110444;1256;34198;-33
2022/09/01 06:57:38;;;;;;;4.30;1.10;;;;;;;;;;110486;1253;35290;-33
2022/09/01 07:00:40;;;;;;;7.10;1.60;;;;;;;;;;110113;1254;33167;-33
2022/09/01 07:04:01;;;;;;;6.50;1.30;;;;;;;;;;110479;1254;33326;-33
2022/09/01 07:06:34;;;;;;;6.90;1.50;;;;;;;;;;110476;1254;35437;-33
2022/09/01 07:09:06;;;;;;;5.30;1.30;;;;;;;;;;110509;1254;35107;-33
2022/09/01 07:11:37;;;;;;;5.00;1.20;;;;;;;;;;110480;1247;34969;-33
2022/09/01 07:14:08;;;;;;;6.40;1.70;;;;;;;;;;110495;1254;34998;-33
2022/09/01 07:16:39;;;;;;;5.30;1.30;;;;;;;;;;110355;1254;35644;-36
2022/09/01 07:19:12;;;;;;;4.90;1.30;;;;;;;;;;110414;1248;35510;-34
2022/09/01 07:21:43;;;;;;;4.80;1.40;;;;;;;;;;110410;1257;34864;-34
2022/09/01 07:24:17;;;;;;;3.60;1.10;;;;;;;;;;110379;1255;35491;-34
2022/09/01 07:26:51;;;;;;;4.70;1.30;;;;;;;;;;110441;1255;35286;-34
2022/09/01 07:29:25;;;;;;;3.90;1.20;;;;;;;;;;110471;1255;34028;-34
2022/09/01 07:31:56;;;;;;;5.30;1.20;;;;;;;;;;110431;1257;35917;-35
2022/09/01 07:34:27;;;;;;;3.90;1.10;;;;;;;;;;110402;1257;35597;-34
2022/09/01 07:36:58;;;;;;;3.80;1.20;;;;;;;;;;110475;1253;34869;-33
2022/09/01 07:39:30;;;;;;;3.60;1.00;;;;;;;;;;110449;1256;34333;-34
2022/09/01 07:42:08;;;;;;;3.70;1.10;;;;;;;;;;110352;1257;35428;-34
2022/09/01 07:44:40;;;;;;;5.60;1.00;;;;;;;;;;110429;1255;35835;-35
2022/09/01 07:47:13;;;;;;;3.50;0.90;;;;;;;;;;110454;1254;34845;-34
2022/09/01 07:49:44;;;;;;;5.20;0.90;;;;;;;;;;110456;1248;35674;-34
2022/09/01 07:52:16;;;;;;;5.30;1.30;;;;;;;;;;110426;1248;35532;-35
2022/09/01 07:54:47;;;;;;;4.40;1.10;;;;;;;;;;110481;1254;33703;-35
2022/09/01 07:57:18;;;;;;;6.50;1.00;;;;;;;;;;110468;1248;35142;-35
2022/09/01 07:59:52;;;;;;;3.50;0.80;;;;;;;;;;110484;1254;35146;-36
2022/09/01 08:02:26;;;;;;;3.90;1.20;;;;;;;;;;110428;1251;34942;-36
2022/09/01 08:04:59;;;;;;;3.30;0.80;;;;;;;;;;110447;1254;34330;-35
2022/09/01 08:07:30;;;;;;;3.80;1.00;;;;;;;;;;110407;1257;34072;-35
2022/09/01 08:10:01;;;;;;;4.10;1.00;;;;;;;;;;110463;1248;35194;-35
2022/09/01 08:12:32;;;;;;;3.10;0.90;;;;;;;;;;110438;1257;35288;-34
2022/09/01 08:15:04;;;;;;;3.90;0.80;;;;;;;;;;110454;1248;34126;-34
2022/09/01 08:17:36;;;;;;;2.80;0.60;;;;;;;;;;110434;1257;35037;-35
2022/09/01 08:20:09;;;;;;;3.10;0.90;;;;;;;;;;110463;1257;37056;-33
2022/09/01 08:22:40;;;;;;;2.90;0.70;;;;;;;;;;110452;1251;34877;-32
2022/09/01 08:25:12;;;;;;;2.40;0.70;;;;;;;;;;110449;1254;35181;-32
2022/09/01 08:27:44;;;;;;;2.40;0.60;;;;;;;;;;110444;1256;35193;-32
2022/09/01 08:30:18;;;;;;;4.60;0.90;;;;;;;;;;110500;1256;34911;-33
2022/09/01 08:32:50;;;;;;;2.20;0.70;;;;;;;;;;110515;1255;34876;-33
2022/09/01 08:35:21;;;;;;;2.40;0.80;;;;;;;;;;110535;1248;34257;-33
2022/09/01 08:37:52;;;;;;;2.60;0.70;;;;;;;;;;110487;1247;35033;-33
2022/09/01 08:40:24;;;;;;;2.10;0.70;;;;;;;;;;110514;1257;34860;-33
2022/09/01 08:43:03;;;;;;;2.00;0.60;;;;;;;;;;110522;1256;34284;-32
2022/09/01 08:45:37;;;;;;;3.20;0.80;;;;;;;;;;110514;1257;35399;-32
2022/09/01 08:48:14;;;;;;;2.80;0.70;;;;;;;;;;110565;1248;35189;-32
2022/09/01 08:50:49;;;;;;;1.70;0.70;;;;;;;;;;110476;1253;33221;-32
2022/09/01 08:53:27;;;;;;;2.80;0.60;;;;;;;;;;110815;1248;33717;-34
2022/09/01 08:55:59;;;;;;;2.20;0.60;;;;;;;;;;110725;1256;32067;-32
2022/09/01 08:58:31;;;;;;;2.50;0.70;;;;;;;;;;110477;1257;35597;-32
2022/09/01 09:01:08;;;;;;;2.50;0.90;;;;;;;;;;110452;1248;33250;-33
2022/09/01 09:03:43;;;;;;;3.30;0.70;;;;;;;;;;110456;1247;33858;-33
2022/09/01 09:06:19;;;;;;;1.30;0.40;;;;;;;;;;110448;1247;34974;-32
2022/09/01 09:08:55;;;;;;;1.30;0.50;;;;;;;;;;110469;1248;33346;-32
2022/09/01 09:11:53;;;;;;;1.70;0.50;;;;;;;;;;110465;1257;34700;-32
2022/09/01 09:14:33;;;;;;;1.80;0.60;;;;;;;;;;110502;1251;34867;-32
2022/09/01 09:17:05;;;;;;;2.70;0.70;;;;;;;;;;110454;1248;35007;-33
2022/09/01 09:19:40;;;;;;;5.00;0.80;;;;;;;;;;110478;1256;35321;-33
2022/09/01 09:22:13;;;;;;;3.80;1.10;;;;;;;;;;110489;1256;35361;-33
2022/09/01 09:24:50;;;;;;;4.00;0.90;;;;;;;;;;110495;1256;34830;-33
2022/09/01 09:27:23;;;;;;;3.80;1.00;;;;;;;;;;110449;1257;33260;-32
2022/09/01 09:29:56;;;;;;;4.10;0.80;;;;;;;;;;110417;1253;34880;-33
2022/09/01 09:32:46;;;;;;;3.90;0.90;;;;;;;;;;110469;1255;34829;-33
2022/09/01 09:35:29;;;;;;;3.30;0.70;;;;;;;;;;110344;1257;34691;-33
2022/09/01 09:38:27;;;;;;;4.40;0.80;;;;;;;;;;110472;1256;33941;-33
2022/09/01 09:41:04;;;;;;;5.10;0.90;;;;;;;;;;110491;1248;35036;-33
2022/09/01 09:43:39;;;;;;;3.20;0.60;;;;;;;;;;110473;1248;34355;-33
2022/09/01 09:46:25;;;;;;;2.00;0.70;;;;;;;;;;110447;1247;33771;-33
2022/09/01 09:49:19;;;;;;;2.50;0.50;;;;;;;;;;110451;1257;34995;-33
2022/09/01 09:51:52;;;;;;;2.50;0.50;;;;;;;;;;110351;1257;35449;-33
2022/09/01 09:54:25;;;;;;;2.70;0.60;;;;;;;;;;110376;1256;33366;-33
2022/09/01 09:57:13;;;;;;;2.50;0.60;;;;;;;;;;110428;1248;35244;-33
2022/09/01 09:59:46;;;;;;;2.70;0.60;;;;;;;;;;110369;1256;35241;-33
2022/09/01 10:02:24;;;;;;;2.70;0.60;;;;;;;;;;110430;1248;33748;-33
2022/09/01 10:04:56;;;;;;;2.60;0.60;;;;;;;;;;110372;1256;34977;-33
2022/09/01 10:07:35;;;;;;;2.60;0.50;;;;;;;;;;110445;1254;33275;-34
2022/09/01 10:10:26;;;;;;;1.90;0.60;;;;;;;;;;110448;1254;34321;-33
2022/09/01 10:12:58;;;;;;;2.20;0.50;;;;;;;;;;110453;1248;35205;-33
2022/09/01 10:15:31;;;;;;;1.70;0.60;;;;;;;;;;110441;1256;33704;-33
2022/09/01 10:18:07;;;;;;;1.90;0.50;;;;;;;;;;110443;1257;35791;-33
2022/09/01 10:20:39;;;;;;;2.70;0.50;;;;;;;;;;110488;1255;35713;-33
2022/09/01 10:23:10;;;;;;;2.00;0.40;;;;;;;;;;110435;1257;35143;-33
2022/09/01 10:25:41;;;;;;;3.10;0.50;;;;;;;;;;110440;1254;35627;-32
2022/09/01 10:28:16;;;;;;;3.70;0.70;;;;;;;;;;110459;1249;33267;-33
2022/09/01 10:30:51;;;;;;;2.30;0.40;;;;;;;;;;110480;1257;34868;-33
2022/09/01 10:33:23;;;;;;;2.30;0.50;;;;;;;;;;110456;1248;34329;-33
2022/09/01 10:35:55;;;;;;;3.00;0.70;;;;;;;;;;110447;1256;35365;-33
2022/09/01 10:38:28;;;;;;;2.50;0.60;;;;;;;;;;110437;1248;34384;-33
2022/09/01 10:41:10;;;;;;;1.70;0.50;;;;;;;;;;110454;1256;33509;-32
2022/09/01 10:43:44;;;;;;;1.40;0.40;;;;;;;;;;110434;1254;35390;-33
2022/09/01 10:46:55;;;;;;;1.80;0.50;;;;;;;;;;110409;1247;35422;-33
2022/09/01 10:49:59;;;;;;;2.40;0.40;;;;;;;;;;110471;1248;35074;-32
2022/09/01 10:53:07;;;;;;;1.80;0.50;;;;;;;;;;110423;1248;34270;-33
2022/09/01 10:55:41;;;;;;;2.50;0.30;;;;;;;;;;110438;1256;35208;-33
2022/09/01 10:58:29;;;;;;;2.20;0.50;;;;;;;;;;110449;1255;35379;-33
2022/09/01 11:01:00;;;;;;;1.10;0.40;;;;;;;;;;110469;1256;35005;-33
2022/09/01 11:04:00;;;;;;;2.40;0.40;;;;;;;;;;110454;1256;35176;-33
2022/09/01 11:06:53;;;;;;;2.90;0.60;;;;;;;;;;110430;1248;33259;-34
2022/09/01 11:09:28;;;;;;;1.60;0.50;;;;;;;;;;110452;1256;34217;-34
2022/09/01 11:12:18;;;;;;;1.80;0.50;;;;;;;;;;110473;1257;35148;-34
2022/09/01 11:14:53;;;;;;;1.00;0.30;;;;;;;;;;110453;1256;35711;-32
2022/09/01 11:17:27;;;;;;;1.20;0.30;;;;;;;;;;110474;1248;33794;-32
2022/09/01 11:20:07;;;;;;;1.20;0.40;;;;;;;;;;110468;1257;35326;-32
2022/09/01 11:22:40;;;;;;;1.10;0.30;;;;;;;;;;110479;1256;34256;-32
2022/09/01 11:25:40;;;;;;;1.50;0.30;;;;;;;;;;110459;1257;35849;-32
2022/09/01 11:28:35;;;;;;;1.00;0.30;;;;;;;;;;110473;1247;35242;-32
2022/09/01 11:31:18;;;;;;;0.80;0.30;;;;;;;;;;110460;1257;34180;-31
2022/09/01 11:34:03;;;;;;;0.70;0.30;;;;;;;;;;110489;1248;35598;-32
2022/09/01 11:36:36;;;;;;;1.40;0.30;;;;;;;;;;110471;1257;35967;-31
2022/09/01 11:39:25;;;;;;;1.10;0.30;;;;;;;;;;110468;1256;35941;-32
2022/09/01 11:42:00;;;;;;;1.20;0.40;;;;;;;;;;110458;1256;33249;-32
2022/09/01 11:44:33;;;;;;;1.40;0.50;;;;;;;;;;110492;1248;34868;-32
2022/09/01 11:47:11;;;;;;;1.50;0.40;;;;;;;;;;110511;1247;35298;-32
2022/09/01 11:49:49;;;;;;;1.90;0.50;;;;;;;;;;110544;1247;33285;-32
2022/09/01 11:52:21;;;;;;;2.30;0.50;;;;;;;;;;110448;1257;34329;-33
2022/09/01 11:54:53;;;;;;;1.40;0.40;;;;;;;;;;110451;1256;33453;-33
2022/09/01 11:57:30;;;;;;;1.30;0.50;;;;;;;;;;110456;1248;33729;-35
2022/09/01 12:00:14;;;;;;;0.80;0.40;;;;;;;;;;110461;1248;34069;-34
2022/09/01 12:02:47;;;;;;;1.20;0.40;;;;;;;;;;110465;1256;35634;-34
2022/09/01 12:05:31;;;;;;;0.90;0.30;;;;;;;;;;110439;1255;35239;-35
2022/09/01 12:08:03;;;;;;;2.60;0.50;;;;;;;;;;110483;1257;35184;-35
2022/09/01 12:10:36;;;;;;;2.40;0.50;;;;;;;;;;110465;1256;35205;-34
2022/09/01 12:13:09;;;;;;;0.90;0.30;;;;;;;;;;110467;1248;33906;-34
2022/09/01 12:15:41;;;;;;;3.30;0.60;;;;;;;;;;110442;1255;35017;-33
2022/09/01 12:18:17;;;;;;;2.10;0.50;;;;;;;;;;110443;1256;35113;-33
2022/09/01 12:20:53;;;;;;;1.40;0.40;;;;;;;;;;110449;1256;34101;-34
2022/09/01 12:23:28;;;;;;;1.60;0.40;;;;;;;;;;110455;1248;34986;-33
2022/09/01 12:26:00;;;;;;;1.70;0.60;;;;;;;;;;110446;1248;34999;-33
2022/09/01 12:28:34;;;;;;;3.00;0.60;;;;;;;;;;110415;1257;33243;-33
2022/09/01 12:31:08;;;;;;;1.90;0.60;;;;;;;;;;110400;1256;35340;-34
2022/09/01 12:33:40;;;;;;;1.80;0.40;;;;;;;;;;110440;1247;33383;-33
2022/09/01 12:36:26;;;;;;;2.00;0.40;;;;;;;;;;110432;1256;35003;-34
2022/09/01 12:38:57;;;;;;;1.10;0.40;;;;;;;;;;110440;1256;33337;-33
2022/09/01 12:41:36;;;;;;;1.20;0.40;;;;;;;;;;110449;1257;35183;-32
2022/09/01 12:44:28;;;;;;;1.90;0.50;;;;;;;;;;110463;1257;35004;-33
2022/09/01 12:47:00;;;;;;;1.20;0.40;;;;;;;;;;110437;1257;33294;-34
2022/09/01 12:49:40;;;;;;;1.40;0.30;;;;;;;;;;110460;1247;34864;-33
2022/09/01 12:52:26;;;;;;;1.80;0.30;;;;;;;;;;110456;1247;35020;-33
2022/09/01 12:55:13;;;;;;;1.80;0.50;;;;;;;;;;110461;1256;34933;-33
2022/09/01 12:57:51;;;;;;;0.80;0.40;;;;;;;;;;110433;1256;34191;-34
2022/09/01 13:00:25;;;;;;;1.00;0.40;;;;;;;;;;110426;1248;35333;-34
2022/09/01 13:03:11;;;;;;;1.70;0.40;;;;;;;;;;110402;1251;35722;-34
2022/09/01 13:05:43;;;;;;;1.70;0.30;;;;;;;;;;110417;1250;32827;-33
2022/09/01 13:08:19;;;;;;;1.60;0.60;;;;;;;;;;110368;1256;35082;-33
2022/09/01 13:10:53;;;;;;;1.10;0.30;;;;;;;;;;109976;1256;565031;-33
2022/09/01 13:13:25;;;;;;;0.80;0.40;;;;;;;;;;110436;1248;35448;-34
2022/09/01 13:16:00;;;;;;;1.80;0.50;;;;;;;;;;110436;1250;33540;-33
2022/09/01 13:18:32;;;;;;;1.70;0.30;;;;;;;;;;110331;1256;36468;-33
2022/09/01 13:21:07;;;;;;;3.10;0.40;;;;;;;;;;110425;1248;35036;-33
2022/09/01 13:23:39;;;;;;;1.60;0.40;;;;;;;;;;110423;1256;34400;-33
2022/09/01 13:26:10;;;;;;;0.40;0.30;;;;;;;;;;110409;1251;35651;-34
2022/09/01 13:28:41;;;;;;;1.00;0.40;;;;;;;;;;110398;1251;34173;-34
2022/09/01 13:31:12;;;;;;;3.60;0.50;;;;;;;;;;110423;1250;35280;-35
2022/09/01 13:33:43;;;;;;;2.60;0.40;;;;;;;;;;110331;1256;35184;-36
2022/09/01 13:36:18;;;;;;;1.40;0.40;;;;;;;;;;110387;1256;33306;-37
2022/09/01 13:38:49;;;;;;;1.30;0.50;;;;;;;;;;110412;1255;33464;-33
2022/09/01 13:41:23;;;;;;;2.50;0.50;;;;;;;;;;110403;1256;35277;-33
2022/09/01 13:43:56;;;;;;;1.20;0.20;;;;;;;;;;110403;1251;35417;-33
2022/09/01 13:46:27;;;;;;;1.80;0.30;;;;;;;;;;110454;1256;34881;-33
2022/09/01 13:48:58;;;;;;;1.10;0.40;;;;;;;;;;110395;1256;35209;-33
2022/09/01 13:51:29;;;;;;;3.70;0.60;;;;;;;;;;110468;1251;35337;-33
2022/09/01 13:54:00;;;;;;;1.40;0.30;;;;;;;;;;110400;1256;35697;-33
2022/09/01 13:56:32;;;;;;;1.40;0.50;;;;;;;;;;110380;1256;35001;-32
2022/09/01 13:59:09;;;;;;;1.20;0.40;;;;;;;;;;110433;1254;34019;-34
2022/09/01 14:01:41;;;;;;;1.40;0.30;;;;;;;;;;110424;1256;34403;-34
2022/09/01 14:04:18;;;;;;;1.60;0.30;;;;;;;;;;110407;1256;35328;-34
2022/09/01 14:06:53;;;;;;;2.10;0.40;;;;;;;;;;110437;1256;34864;-34
2022/09/01 14:09:27;;;;;;;1.40;0.40;;;;;;;;;;110419;1256;35301;-35
2022/09/01 14:11:57;;;;;;;;;;;;;;;;;;110420;1256;35246;-34
2022/09/01 14:14:28;;;;;;;2.30;0.60;;;;;;;;;;110434;1247;34555;-33
2022/09/01 14:17:00;;;;;;;1.60;0.40;;;;;;;;;;110418;1249;33370;-33
2022/09/01 14:19:32;;;;;;;1.90;0.50;;;;;;;;;;110451;1247;33539;-35
2022/09/01 14:22:05;;;;;;;2.10;0.40;;;;;;;;;;110439;1256;35839;-35
2022/09/01 14:24:37;;;;;;;3.80;0.60;;;;;;;;;;110417;1255;34893;-33
2022/09/01 14:27:08;;;;;;;3.20;0.70;;;;;;;;;;110456;1247;33643;-34
2022/09/01 14:29:40;;;;;;;2.70;0.60;;;;;;;;;;110424;1248;34277;-35
2022/09/01 14:32:13;;;;;;;2.60;0.50;;;;;;;;;;110422;1247;35800;-34
2022/09/01 14:34:42;;;;;;;;;;;;;;;;;;110437;1253;32612;-34
2022/09/01 14:37:13;;;;;;;1.60;0.40;;;;;;;;;;110232;1257;34438;-33
2022/09/01 14:39:49;;;;;;;2.60;0.60;;;;;;;;;;110416;1255;35032;-33
2022/09/01 14:42:20;;;;;;;2.00;0.40;;;;;;;;;;110470;1255;33293;-33
2022/09/01 14:44:50;;;;;;;2.10;0.50;;;;;;;;;;110414;1248;33415;-35
2022/09/01 14:47:24;;;;;;;1.20;0.40;;;;;;;;;;110393;1250;35170;-36
2022/09/01 14:49:55;;;;;;;1.80;0.40;;;;;;;;;;110430;1256;33834;-35
2022/09/01 14:52:26;;;;;;;1.90;0.40;;;;;;;;;;110435;1255;35724;-34
2022/09/01 14:55:00;;;;;;;2.20;0.50;;;;;;;;;;110367;1254;33329;-33
2022/09/01 14:57:31;;;;;;;2.10;0.60;;;;;;;;;;110289;1248;35476;-33
2022/09/01 15:00:08;;;;;;;1.90;0.50;;;;;;;;;;110308;1250;33217;-35
2022/09/01 15:02:40;;;;;;;1.80;0.40;;;;;;;;;;110474;1255;35020;-35
2022/09/01 15:05:13;;;;;;;1.90;0.50;;;;;;;;;;110473;1256;33708;-35
2022/09/01 15:07:44;;;;;;;1.60;0.40;;;;;;;;;;110451;1248;34295;-35
2022/09/01 15:10:18;;;;;;;1.30;0.30;;;;;;;;;;110445;1247;33506;-36
2022/09/01 15:12:50;;;;;;;1.80;0.40;;;;;;;;;;110468;1248;33829;-36
2022/09/01 15:15:21;;;;;;;1.70;0.20;;;;;;;;;;110431;1254;34912;-36
2022/09/01 15:17:53;;;;;;;2.70;0.60;;;;;;;;;;110449;1255;35701;-36
2022/09/01 15:20:47;;;;;;;1.70;0.40;;;;;;;;;;110395;1252;33559;-36
2022/09/01 15:23:20;;;;;;;0.80;0.30;;;;;;;;;;110430;1247;35529;-36